Time;durP1;ratioP1;P1;durP2;ratioP2;P2;SDS_P1;SDS_P2;PMS_P1;PMS_P2;Temp;Humidity;BMP_temperature;BMP_pressure;BME280_temperature;BME280_humidity;BME280_pressure;Samples;Min_cycle;Max_cycle;Signal;HPM_P1;HPM_P2
2023/07/08 00:00:14;;;;;;;8.20;5.40;;;23.30;99.90;;;;;;4882036;29;20539;-90
2023/07/08 00:02:41;;;;;;;7.40;5.93;;;23.40;99.90;;;;;;4882921;29;20209;-91
2023/07/08 00:05:09;;;;;;;9.03;6.03;;;23.40;99.90;;;;;;4882691;29;20179;-92
2023/07/08 00:07:37;;;;;;;9.13;6.30;;;23.40;99.90;;;;;;4881088;29;20633;-92
2023/07/08 00:10:18;;;;;;;6.50;4.93;;;23.40;99.90;;;;;;4881947;29;20187;-91
2023/07/08 00:12:45;;;;;;;8.70;5.53;;;23.30;99.90;;;;;;4880605;29;20192;-92
2023/07/08 00:15:11;;;;;;;9.03;5.60;;;23.30;99.90;;;;;;4882821;29;20607;-90
2023/07/08 00:17:37;;;;;;;10.30;5.57;;;23.30;99.90;;;;;;4882916;29;20171;-91
2023/07/08 00:20:18;;;;;;;7.83;5.43;;;23.20;99.90;;;;;;4881629;29;20187;-90
2023/07/08 00:22:46;;;;;;;9.33;5.33;;;23.20;99.90;;;;;;4879574;29;20183;-91
2023/07/08 00:25:14;;;;;;;7.90;5.23;;;23.20;99.90;;;;;;4882090;29;20223;-92
2023/07/08 00:27:40;;;;;;;9.57;5.73;;;23.30;99.90;;;;;;4881571;29;20218;-89
2023/07/08 00:30:45;;;;;;;11.60;6.60;;;23.30;99.90;;;;;;4882561;29;20183;-86
2023/07/08 00:33:11;;;;;;;10.20;5.80;;;23.30;99.90;;;;;;4914570;29;20292;-85
2023/07/08 00:35:42;;;;;;;11.23;6.40;;;23.20;99.90;;;;;;4915685;29;20280;-85
2023/07/08 00:38:27;;;;;;;10.53;5.97;;;23.20;99.90;;;;;;4888361;29;20199;-85
2023/07/08 00:40:59;;;;;;;10.83;5.90;;;23.10;99.90;;;;;;4860929;29;20199;-87
2023/07/08 00:43:43;;;;;;;10.40;6.03;;;23.10;99.90;;;;;;4868236;29;20175;-87
2023/07/08 00:46:23;;;;;;;9.33;6.17;;;23.20;99.90;;;;;;4879529;29;20297;-85
2023/07/08 00:48:52;;;;;;;8.10;5.57;;;23.30;99.90;;;;;;4897844;29;20658;-85
2023/07/08 00:51:19;;;;;;;12.33;5.97;;;23.30;99.90;;;;;;4901383;29;20175;-88
2023/07/08 00:53:45;;;;;;;8.57;5.80;;;23.30;99.90;;;;;;4897966;29;20179;-92
2023/07/08 00:56:42;;;;;;;9.37;6.00;;;23.30;99.90;;;;;;4881758;29;20222;-85
2023/07/08 00:59:33;;;;;;;11.67;5.80;;;23.40;99.90;;;;;;4874686;29;20646;-86
2023/07/08 01:02:01;;;;;;;10.70;6.10;;;23.30;99.90;;;;;;4880747;29;20178;-86
2023/07/08 01:04:43;;;;;;;13.10;6.40;;;23.30;99.90;;;;;;4880373;29;20179;-93
2023/07/08 01:07:09;;;;;;;17.00;6.53;;;23.30;99.90;;;;;;4890877;29;20315;-91
2023/07/08 01:09:41;;;;;;;11.00;6.53;;;23.00;99.90;;;;;;4901258;29;20186;-88
2023/07/08 01:12:11;;;;;;;10.40;6.07;;;22.90;99.90;;;;;;4896705;29;20167;-86
2023/07/08 01:14:42;;;;;;;11.67;5.90;;;22.60;99.90;;;;;;4890098;29;20525;-88
2023/07/08 01:17:13;;;;;;;9.93;5.77;;;22.50;99.90;;;;;;4883798;29;20187;-90
2023/07/08 01:19:42;;;;;;;11.37;6.53;;;22.50;99.90;;;;;;4890528;29;20179;-84
2023/07/08 01:22:08;;;;;;;10.27;5.93;;;22.60;99.90;;;;;;4899546;29;20714;-87
2023/07/08 01:24:38;;;;;;;8.47;5.90;;;22.50;99.90;;;;;;4896977;29;20179;-90
2023/07/08 01:27:07;;;;;;;9.67;5.90;;;22.50;1.00;;;;;;4891386;29;20403;-86
2023/07/08 01:29:34;;;;;;;8.97;5.77;;;22.50;1.00;;;;;;4893723;29;20187;-87
2023/07/08 01:32:02;;;;;;;10.07;5.80;;;22.30;1.00;;;;;;4884684;29;20193;-86
2023/07/08 01:34:37;;;;;;;9.07;5.70;;;22.10;1.00;;;;;;4878472;29;20205;-86
2023/07/08 01:37:11;;;;;;;8.30;5.47;;;22.00;1.00;;;;;;4880313;29;20197;-86
2023/07/08 01:39:39;;;;;;;6.93;5.57;;;21.90;1.00;;;;;;4879822;29;20530;-88
2023/07/08 01:42:05;;;;;;;10.57;5.70;;;21.80;1.00;;;;;;4879104;29;20232;-87
2023/07/08 01:44:32;;;;;;;6.73;5.03;;;21.80;1.00;;;;;;4878735;29;20649;-86
2023/07/08 01:47:12;;;;;;;9.70;5.80;;;21.70;1.00;;;;;;4877158;29;20246;-87
2023/07/08 01:49:40;;;;;;;8.07;5.70;;;21.70;1.00;;;;;;4878751;29;20181;-86
2023/07/08 01:52:08;;;;;;;8.37;5.63;;;21.60;1.00;;;;;;4878209;29;20193;-87
2023/07/08 01:54:34;;;;;;;7.93;5.20;;;21.60;1.00;;;;;;4878602;29;20182;-86
2023/07/08 01:57:01;;;;;;;8.93;5.70;;;21.50;1.00;;;;;;4877145;29;20257;-86
2023/07/08 01:59:27;;;;;;;7.87;5.53;;;21.50;1.00;;;;;;4879355;29;20185;-87
2023/07/08 02:01:56;;;;;;;7.60;5.67;;;21.40;1.00;;;;;;4877990;29;20189;-85
2023/07/08 02:04:26;;;;;;;9.63;6.00;;;21.40;1.00;;;;;;4878038;29;20173;-86
2023/07/08 02:07:00;;;;;;;9.33;5.77;;;21.50;1.00;;;;;;4878349;29;20308;-86
2023/07/08 02:09:30;;;;;;;9.33;6.00;;;21.60;1.00;;;;;;4878875;29;20185;-86
2023/07/08 02:11:56;;;;;;;9.43;5.53;;;21.70;1.00;;;;;;4878429;29;20182;-86
2023/07/08 02:14:22;;;;;;;8.57;5.50;;;21.70;1.00;;;;;;4877876;29;20200;-90
2023/07/08 02:16:47;;;;;;;6.43;5.40;;;21.50;1.00;;;;;;4878845;29;20203;-87
2023/07/08 02:19:13;;;;;;;9.93;5.63;;;21.40;1.00;;;;;;4878172;29;20225;-86
2023/07/08 02:21:39;;;;;;;9.43;5.87;;;21.30;1.00;;;;;;4878372;29;20476;-86
2023/07/08 02:24:07;;;;;;;8.40;5.77;;;21.20;1.00;;;;;;4877505;29;20198;-86
2023/07/08 02:26:33;;;;;;;10.13;5.57;;;21.20;1.00;;;;;;4877946;29;20217;-88
2023/07/08 02:28:59;;;;;;;7.63;5.73;;;21.20;1.00;;;;;;4877902;29;20659;-85
2023/07/08 02:31:26;;;;;;;8.43;6.10;;;21.20;1.00;;;;;;4878221;29;20275;-86
2023/07/08 02:33:53;;;;;;;9.03;6.07;;;21.10;1.00;;;;;;4879252;29;20242;-87
2023/07/08 02:36:18;;;;;;;7.93;5.87;;;21.10;1.00;;;;;;4877819;29;20201;-85
2023/07/08 02:38:44;;;;;;;10.43;5.83;;;21.20;1.00;;;;;;4877798;29;20193;-87
2023/07/08 02:41:11;;;;;;;10.53;6.10;;;21.20;1.00;;;;;;4876925;29;20181;-86
2023/07/08 02:43:38;;;;;;;11.47;6.27;;;21.30;1.00;;;;;;4878555;29;20193;-85
2023/07/08 02:46:04;;;;;;;8.83;6.23;;;21.40;1.00;;;;;;4879996;29;20303;-85
2023/07/08 02:48:29;;;;;;;9.50;5.90;;;21.40;1.00;;;;;;4880464;29;20228;-85
2023/07/08 02:51:00;;;;;;;9.90;6.10;;;21.40;1.00;;;;;;4882127;29;20176;-86
2023/07/08 02:53:25;;;;;;;9.97;6.00;;;21.40;1.00;;;;;;4878473;29;20248;-86
2023/07/08 02:55:51;;;;;;;9.27;6.00;;;21.40;1.00;;;;;;4878617;29;20189;-86
2023/07/08 02:58:17;;;;;;;9.90;6.60;;;21.40;1.00;;;;;;4878359;29;20187;-87
2023/07/08 03:00:42;;;;;;;8.73;6.03;;;21.40;1.00;;;;;;4877221;29;20170;-86
2023/07/08 03:03:09;;;;;;;7.17;5.63;;;21.40;1.00;;;;;;4876963;29;20721;-89
2023/07/08 03:05:34;;;;;;;9.53;5.90;;;21.50;1.00;;;;;;4879254;29;20201;-86
2023/07/08 03:08:00;;;;;;;8.47;6.03;;;21.50;1.00;;;;;;4878695;29;20684;-91
2023/07/08 03:10:30;;;;;;;10.40;6.10;;;21.40;1.00;;;;;;4880397;29;20229;-90
2023/07/08 03:12:55;;;;;;;10.20;6.07;;;21.30;1.00;;;;;;4881821;29;20260;-89
2023/07/08 03:15:21;;;;;;;7.73;5.63;;;21.40;1.00;;;;;;4884514;29;20212;-92
2023/07/08 03:17:47;;;;;;;8.93;6.20;;;21.40;1.00;;;;;;4885150;29;20268;-89
2023/07/08 03:20:12;;;;;;;7.10;5.43;;;21.30;1.00;;;;;;4882146;29;20610;-90
2023/07/08 03:22:39;;;;;;;10.73;6.40;;;21.20;1.00;;;;;;4881322;29;20594;-89
2023/07/08 03:25:06;;;;;;;9.87;6.90;;;21.20;1.00;;;;;;4881680;29;20177;-88
2023/07/08 03:27:32;;;;;;;9.93;6.57;;;21.20;1.00;;;;;;4882267;29;20270;-87
2023/07/08 03:29:58;;;;;;;8.63;5.97;;;21.30;1.00;;;;;;4882294;29;20549;-90
2023/07/08 03:32:25;;;;;;;9.50;6.90;;;21.30;1.00;;;;;;4887116;29;20197;-91
2023/07/08 03:34:51;;;;;;;11.50;6.33;;;21.30;1.00;;;;;;4903844;29;20186;-90
2023/07/08 03:37:17;;;;;;;10.10;6.07;;;21.20;1.00;;;;;;4898337;29;20205;-86
2023/07/08 03:39:43;;;;;;;8.53;6.17;;;21.20;1.00;;;;;;4896905;29;20189;-87
2023/07/08 03:42:12;;;;;;;7.93;6.07;;;21.10;1.00;;;;;;4883135;29;20181;-88
2023/07/08 03:44:39;;;;;;;9.00;6.10;;;21.10;1.00;;;;;;4882631;29;20330;-90
2023/07/08 03:47:05;;;;;;;11.60;7.20;;;21.10;1.00;;;;;;4881065;29;20221;-89
2023/07/08 03:49:30;;;;;;;10.70;6.57;;;21.00;1.00;;;;;;4881092;29;20183;-89
2023/07/08 03:51:56;;;;;;;9.40;5.80;;;20.90;1.00;;;;;;4880843;29;20185;-92
2023/07/08 03:54:24;;;;;;;13.27;6.13;;;20.90;1.00;;;;;;4897746;29;20193;-87
2023/07/08 03:56:49;;;;;;;9.27;6.73;;;20.90;1.00;;;;;;4903690;29;20169;-89
2023/07/08 03:59:15;;;;;;;12.57;6.77;;;20.90;1.00;;;;;;4895530;29;20188;-87
2023/07/08 04:01:47;;;;;;;9.00;6.27;;;20.80;1.00;;;;;;4888384;29;20578;-92
2023/07/08 04:04:16;;;;;;;9.37;6.37;;;20.80;1.00;;;;;;4882355;29;20180;-89
2023/07/08 04:06:43;;;;;;;8.83;6.83;;;20.90;1.00;;;;;;4880778;29;20218;-90
2023/07/08 04:09:08;;;;;;;10.50;6.73;;;20.90;1.00;;;;;;4882799;29;20192;-91
2023/07/08 04:11:34;;;;;;;9.50;5.67;;;20.80;1.00;;;;;;4884784;29;20176;-89
2023/07/08 04:14:00;;;;;;;10.37;6.60;;;20.90;1.00;;;;;;4883014;29;20179;-86
2023/07/08 04:16:30;;;;;;;10.23;6.90;;;20.90;1.00;;;;;;4882425;29;20183;-87
2023/07/08 04:18:56;;;;;;;10.67;6.50;;;20.80;1.00;;;;;;4880925;29;20186;-88
2023/07/08 04:21:27;;;;;;;10.63;6.40;;;20.70;1.00;;;;;;4881881;29;20180;-89
2023/07/08 04:23:53;;;;;;;11.70;6.20;;;20.70;1.00;;;;;;4879759;29;20172;-86
2023/07/08 04:26:19;;;;;;;10.50;6.77;;;20.80;1.00;;;;;;4881021;29;20213;-86
2023/07/08 04:28:44;;;;;;;11.17;6.30;;;20.90;1.00;;;;;;4880935;29;20185;-86
2023/07/08 04:31:10;;;;;;;11.00;6.70;;;20.90;1.00;;;;;;4882018;29;20165;-87
2023/07/08 04:33:36;;;;;;;9.67;6.17;;;20.70;1.00;;;;;;4892892;29;20204;-85
2023/07/08 04:36:02;;;;;;;12.50;6.70;;;20.70;1.00;;;;;;4891826;29;20215;-86
2023/07/08 04:38:28;;;;;;;8.27;5.90;;;20.80;1.00;;;;;;4885546;29;20175;-87
2023/07/08 04:40:57;;;;;;;12.53;6.07;;;20.90;1.00;;;;;;4881472;29;20607;-87
2023/07/08 04:43:22;;;;;;;10.53;6.03;;;21.00;1.00;;;;;;4879856;29;20178;-91
2023/07/08 04:45:53;;;;;;;10.20;5.87;;;21.10;1.00;;;;;;4880215;29;20729;-91
2023/07/08 04:48:24;;;;;;;10.87;6.00;;;21.10;1.00;;;;;;4881371;29;20191;-89
2023/07/08 04:50:51;;;;;;;12.03;6.30;;;21.10;1.00;;;;;;4880337;29;20636;-87
2023/07/08 04:53:17;;;;;;;9.90;6.03;;;21.00;1.00;;;;;;4879514;29;20198;-92
2023/07/08 04:55:52;;;;;;;8.40;6.07;;;21.10;1.00;;;;;;4879963;29;20247;-87
2023/07/08 04:58:17;;;;;;;10.27;6.20;;;21.10;1.00;;;;;;4880406;29;20180;-86
2023/07/08 05:00:43;;;;;;;11.53;6.10;;;21.20;1.00;;;;;;4878743;29;20202;-86
2023/07/08 05:03:09;;;;;;;9.10;6.53;;;21.30;1.00;;;;;;4878746;29;20180;-86
2023/07/08 05:05:35;;;;;;;10.07;6.50;;;21.30;1.00;;;;;;4879929;29;20622;-87
2023/07/08 05:08:00;;;;;;;11.87;6.23;;;21.40;1.00;;;;;;4879334;29;20220;-86
2023/07/08 05:10:26;;;;;;;11.17;6.17;;;21.20;1.00;;;;;;4879254;29;20244;-86
2023/07/08 05:12:52;;;;;;;12.27;6.50;;;21.10;1.00;;;;;;4877387;29;20196;-87
2023/07/08 05:15:17;;;;;;;9.97;6.70;;;21.30;1.00;;;;;;4880188;29;20720;-89
2023/07/08 05:17:43;;;;;;;11.40;6.80;;;21.50;1.00;;;;;;4881628;29;20198;-88
2023/07/08 05:20:12;;;;;;;9.93;6.30;;;21.60;1.00;;;;;;4880251;29;20634;-87
2023/07/08 05:22:38;;;;;;;12.33;6.73;;;21.70;1.00;;;;;;4880877;29;20181;-91
2023/07/08 05:25:05;;;;;;;11.37;6.27;;;21.70;1.00;;;;;;4880781;29;20200;-91
2023/07/08 05:27:33;;;;;;;11.90;7.27;;;21.80;1.00;;;;;;4881615;29;20229;-90
2023/07/08 05:29:58;;;;;;;10.60;6.27;;;21.80;1.00;;;;;;4896372;29;20195;-84
2023/07/08 05:32:25;;;;;;;10.00;6.63;;;21.80;1.00;;;;;;4901466;29;20261;-87
2023/07/08 05:34:50;;;;;;;11.23;6.50;;;21.80;1.00;;;;;;4890823;29;20232;-86
2023/07/08 05:37:18;;;;;;;11.10;6.97;;;21.70;1.00;;;;;;4880452;29;20727;-87
2023/07/08 05:39:44;;;;;;;12.03;6.40;;;21.90;1.00;;;;;;4879373;29;20276;-86
2023/07/08 05:42:10;;;;;;;9.60;6.60;;;22.00;1.00;;;;;;4878696;29;20725;-87
2023/07/08 05:44:35;;;;;;;12.17;6.57;;;22.00;1.00;;;;;;4878701;29;20714;-87
2023/07/08 05:47:01;;;;;;;7.93;6.40;;;22.00;1.00;;;;;;4878294;29;20216;-86
2023/07/08 05:49:27;;;;;;;13.40;6.77;;;22.10;1.00;;;;;;4878270;29;20192;-87
2023/07/08 05:51:52;;;;;;;9.33;6.43;;;22.20;1.00;;;;;;4878388;29;20726;-88
2023/07/08 05:54:18;;;;;;;10.47;6.10;;;22.40;1.00;;;;;;4882171;29;20249;-87
2023/07/08 05:56:44;;;;;;;11.23;6.60;;;22.40;1.00;;;;;;4879682;29;20245;-86
2023/07/08 05:59:11;;;;;;;12.03;6.93;;;22.50;1.00;;;;;;4878975;29;20195;-87
2023/07/08 06:01:37;;;;;;;11.43;5.87;;;22.70;1.00;;;;;;4879344;29;20178;-88
2023/07/08 06:04:03;;;;;;;11.13;6.83;;;22.90;1.00;;;;;;4876924;29;20186;-86
2023/07/08 06:06:29;;;;;;;9.27;6.43;;;23.10;1.00;;;;;;4878638;29;20219;-86
2023/07/08 06:08:54;;;;;;;14.53;6.97;;;23.20;1.00;;;;;;4878502;29;20662;-88
2023/07/08 06:11:24;;;;;;;13.43;7.33;;;23.30;99.90;;;;;;4878144;29;20175;-87
2023/07/08 06:13:49;;;;;;;12.50;6.70;;;23.40;99.90;;;;;;4876684;29;20171;-87
2023/07/08 06:16:15;;;;;;;10.60;6.30;;;23.60;99.90;;;;;;4878713;29;20251;-88
2023/07/08 06:18:41;;;;;;;11.43;7.00;;;23.50;99.90;;;;;;4878968;29;20175;-86
2023/07/08 06:21:06;;;;;;;12.10;7.23;;;23.40;99.90;;;;;;4893042;29;20190;-91
2023/07/08 06:23:32;;;;;;;10.83;6.93;;;23.50;99.90;;;;;;4894718;29;20242;-88
2023/07/08 06:25:58;;;;;;;8.67;6.10;;;23.50;99.90;;;;;;4883885;29;20185;-85
2023/07/08 06:28:26;;;;;;;11.20;6.60;;;23.70;99.90;;;;;;4878595;29;20190;-86
2023/07/08 06:30:53;;;;;;;12.67;7.23;;;23.80;99.90;;;;;;4879097;29;20546;-86
2023/07/08 06:33:19;;;;;;;10.93;6.87;;;23.80;99.90;;;;;;4878752;29;20709;-87
2023/07/08 06:35:44;;;;;;;9.83;6.80;;;23.80;99.90;;;;;;4878084;29;20206;-87
2023/07/08 06:38:10;;;;;;;10.37;6.80;;;23.80;99.90;;;;;;4877644;29;20281;-86
2023/07/08 06:40:36;;;;;;;13.03;6.33;;;23.80;99.90;;;;;;4895672;29;20182;-92
2023/07/08 06:43:03;;;;;;;10.50;6.70;;;23.90;99.90;;;;;;4897986;29;20187;-86
2023/07/08 06:45:29;;;;;;;11.67;6.60;;;24.10;99.90;;;;;;4883512;29;20230;-88
2023/07/08 06:47:57;;;;;;;10.67;6.40;;;24.20;99.90;;;;;;4882906;29;20634;-85
2023/07/08 06:50:24;;;;;;;10.40;6.40;;;24.40;99.90;;;;;;4881783;29;20190;-87
2023/07/08 06:52:50;;;;;;;8.43;5.90;;;24.50;99.90;;;;;;4881956;29;20179;-91
2023/07/08 06:55:15;;;;;;;9.83;6.20;;;24.60;99.90;;;;;;4882107;29;20624;-86
2023/07/08 06:57:41;;;;;;;10.23;6.37;;;24.70;99.90;;;;;;4881896;29;20206;-86
2023/07/08 07:00:09;;;;;;;10.30;6.30;;;24.80;99.90;;;;;;4879946;29;20554;-87
2023/07/08 07:02:36;;;;;;;9.97;6.73;;;25.00;99.90;;;;;;4879839;29;20205;-86
2023/07/08 07:05:03;;;;;;;9.57;6.47;;;25.20;99.90;;;;;;4881497;29;20171;-86
2023/07/08 07:07:29;;;;;;;8.47;6.13;;;25.40;24.20;;;;;;4874018;29;20228;-86
2023/07/08 07:09:55;;;;;;;9.53;6.17;;;25.60;1.00;;;;;;4880662;29;20177;-87
2023/07/08 07:12:22;;;;;;;7.97;5.90;;;25.70;1.00;;;;;;4881089;29;20238;-90
2023/07/08 07:14:49;;;;;;;11.87;6.17;;;25.80;1.00;;;;;;4880606;29;20242;-86
2023/07/08 07:17:15;;;;;;;10.20;5.93;;;26.00;99.90;;;;;;4880102;29;20230;-87
2023/07/08 07:19:40;;;;;;;8.87;6.13;;;26.10;1.00;;;;;;4881694;29;20644;-86
2023/07/08 07:22:06;;;;;;;9.17;5.70;;;26.20;1.00;;;;;;4881529;29;20345;-85
2023/07/08 07:24:32;;;;;;;11.20;6.77;;;26.30;99.90;;;;;;4881534;29;20178;-86
2023/07/08 07:26:58;;;;;;;8.82;6.47;;;26.60;99.90;;;;;;4885651;29;20269;-89
2023/07/08 07:29:26;;;;;;;8.55;6.10;;;26.50;99.90;;;;;;4884990;29;20186;-92
2023/07/08 07:31:52;;;;;;;8.53;6.40;;;26.60;1.00;;;;;;4888449;29;20183;-91
2023/07/08 07:34:19;;;;;;;8.60;6.33;;;26.80;18.40;;;;;;4882592;29;20199;-84
2023/07/08 07:36:44;;;;;;;9.82;6.45;;;26.90;99.90;;;;;;4880152;29;20682;-82
2023/07/08 07:39:10;;;;;;;8.50;6.20;;;27.10;99.90;;;;;;4878797;29;20186;-85
2023/07/08 07:41:36;;;;;;;10.57;6.32;;;27.20;1.00;;;;;;4882101;29;20183;-83
2023/07/08 07:44:02;;;;;;;9.52;6.13;;;27.20;99.90;;;;;;4881320;29;20634;-83
2023/07/08 07:46:28;;;;;;;9.90;6.38;;;27.20;1.00;;;;;;4881819;29;20254;-83
2023/07/08 07:48:55;;;;;;;9.57;6.30;;;27.30;7.40;;;;;;4882160;29;20632;-82
2023/07/08 07:51:20;;;;;;;10.63;6.35;;;27.30;7.00;;;;;;4880240;29;20205;-81
2023/07/08 07:53:46;;;;;;;11.68;6.70;;;27.40;1.00;;;;;;4883358;29;20640;-92
2023/07/08 07:56:12;;;;;;;10.98;6.72;;;27.70;1.00;;;;;;4882832;29;20209;-91
2023/07/08 07:58:38;;;;;;;12.57;6.43;;;28.00;99.90;;;;;;4882758;29;20174;-79
2023/07/08 08:01:05;;;;;;;10.50;6.85;;;28.20;1.00;;;;;;4882746;29;20179;-79
2023/07/08 08:03:31;;;;;;;11.60;6.80;;;28.30;1.00;;;;;;4880773;29;20167;-80
2023/07/08 08:05:58;;;;;;;9.10;7.18;;;28.50;1.00;;;;;;4881987;29;20315;-80
2023/07/08 08:08:23;;;;;;;11.15;6.60;;;28.60;99.90;;;;;;4882505;29;20175;-78
2023/07/08 08:10:49;;;;;;;8.25;6.35;;;28.80;99.90;;;;;;4883473;29;20171;-79
2023/07/08 08:13:15;;;;;;;11.18;6.88;;;28.90;1.00;;;;;;4883184;29;20190;-86
2023/07/08 08:15:40;;;;;;;10.60;6.72;;;29.00;1.00;;;;;;4883115;29;20164;-93
2023/07/08 08:18:06;;;;;;;10.60;6.70;;;29.20;99.90;;;;;;4881699;29;20711;-80
2023/07/08 08:20:32;;;;;;;10.23;6.60;;;29.00;99.90;;;;;;4882636;29;20699;-82
2023/07/08 08:22:58;;;;;;;7.82;6.20;;;28.90;99.90;;;;;;4882975;29;20171;-89
2023/07/08 08:25:24;;;;;;;9.85;7.05;;;28.80;99.90;;;;;;4882382;29;20159;-86
2023/07/08 08:27:52;;;;;;;8.90;6.82;;;28.80;1.00;;;;;;4882168;29;20679;-82
2023/07/08 08:30:19;;;;;;;10.38;7.05;;;29.00;1.00;;;;;;4879485;29;20234;-83
2023/07/08 08:32:45;;;;;;;9.52;6.40;;;29.00;1.00;;;;;;4879157;29;20190;-85
2023/07/08 08:35:11;;;;;;;9.32;6.13;;;29.00;1.00;;;;;;4881668;29;20231;-82
2023/07/08 08:37:37;;;;;;;9.93;6.47;;;29.10;1.00;;;;;;4879503;29;20227;-84
2023/07/08 08:40:03;;;;;;;7.95;6.15;;;29.10;1.00;;;;;;4880510;29;20203;-85
2023/07/08 08:42:42;;;;;;;7.95;6.75;;;29.40;1.00;;;;;;4882783;29;20175;-88
2023/07/08 08:45:15;;;;;;;8.70;6.30;;;29.50;1.00;;;;;;4884852;29;20552;-88
2023/07/08 08:47:46;;;;;;;8.65;6.47;;;29.60;1.00;;;;;;4869703;29;20208;-84
2023/07/08 08:50:32;;;;;;;9.00;7.07;;;29.60;1.00;;;;;;4868880;29;20187;-88
2023/07/08 08:53:06;;;;;;;9.90;6.85;;;29.50;1.00;;;;;;4881670;29;20598;-86
2023/07/08 08:55:32;;;;;;;8.73;6.30;;;29.10;1.00;;;;;;4881948;29;20167;-84
2023/07/08 08:58:11;;;;;;;10.05;7.20;;;29.00;1.00;;;;;;4879311;29;20694;-83
2023/07/08 09:01:00;;;;;;;12.57;7.32;;;29.20;1.00;;;;;;4880453;29;20178;-88
2023/07/08 09:03:50;;;;;;;8.13;6.45;;;29.50;1.00;;;;;;4883703;29;20179;-88
2023/07/08 09:06:27;;;;;;;10.13;6.78;;;29.80;1.00;;;;;;4883482;29;20222;-88
2023/07/08 09:08:55;;;;;;;10.23;6.88;;;29.90;1.00;;;;;;4897313;29;20178;-86
2023/07/08 09:11:54;;;;;;;9.50;6.63;;;29.80;99.90;;;;;;4891555;29;20243;-84
2023/07/08 09:14:28;;;;;;;10.55;7.22;;;29.70;99.90;;;;;;4868306;29;20207;-89
2023/07/08 09:17:31;;;;;;;10.00;7.38;;;29.70;99.90;;;;;;4861886;29;20232;-86
2023/07/08 09:20:03;;;;;;;12.82;7.40;;;30.10;99.90;;;;;;4861403;29;20191;-85
2023/07/08 09:22:33;;;;;;;11.35;7.82;;;30.30;99.90;;;;;;4875198;29;20206;-89
2023/07/08 09:25:04;;;;;;;9.48;7.10;;;30.50;99.90;;;;;;4880734;29;20179;-84
2023/07/08 09:27:30;;;;;;;9.05;6.78;;;30.70;99.90;;;;;;4889072;29;20213;-83
2023/07/08 09:29:56;;;;;;;10.25;7.03;;;30.80;99.90;;;;;;4885070;29;20170;-83
2023/07/08 09:32:25;;;;;;;10.77;7.40;;;30.90;99.90;;;;;;4895848;29;20190;-86
2023/07/08 09:35:01;;;;;;;10.48;6.82;;;30.90;99.90;;;;;;4883877;29;20250;-88
2023/07/08 09:37:35;;;;;;;9.68;7.70;;;31.10;99.90;;;;;;4879716;29;20201;-88
2023/07/08 09:40:16;;;;;;;9.52;6.57;;;31.20;99.90;;;;;;4885697;29;20202;-86
2023/07/08 09:42:44;;;;;;;10.32;7.75;;;30.90;67.50;;;;;;4893173;29;20222;-85
2023/07/08 09:45:16;;;;;;;9.88;6.80;;;30.60;30.40;;;;;;4891780;29;20189;-84
2023/07/08 09:47:45;;;;;;;10.75;7.15;;;30.50;33.20;;;;;;4892363;29;20213;-86
2023/07/08 09:50:25;;;;;;;9.27;6.57;;;30.50;51.90;;;;;;4882273;29;20179;-90
2023/07/08 09:53:00;;;;;;;9.23;7.40;;;30.70;84.40;;;;;;4864183;29;20648;-88
2023/07/08 09:55:25;;;;;;;10.05;7.15;;;30.70;81.50;;;;;;4878125;29;20191;-87
2023/07/08 09:57:53;;;;;;;8.45;7.20;;;30.80;78.00;;;;;;4862062;29;20186;-86
2023/07/08 10:00:28;;;;;;;10.40;7.32;;;31.00;34.20;;;;;;4861583;29;20171;-90
2023/07/08 10:02:57;;;;;;;11.45;6.93;;;31.10;29.10;;;;;;4861431;29;20179;-88
2023/07/08 10:05:32;;;;;;;10.18;7.75;;;31.00;20.80;;;;;;4858785;29;20270;-85
2023/07/08 10:07:58;;;;;;;9.07;7.18;;;31.10;33.50;;;;;;4858642;29;20366;-86
2023/07/08 10:10:52;;;;;;;10.57;6.90;;;31.50;5.60;;;;;;4872064;29;20242;-86
2023/07/08 10:13:40;;;;;;;10.57;7.20;;;31.70;1.00;;;;;;4872285;29;20648;-88
2023/07/08 10:16:25;;;;;;;11.80;7.15;;;31.30;1.00;;;;;;4879602;29;20178;-85
2023/07/08 10:18:51;;;;;;;11.75;7.60;;;31.30;1.00;;;;;;4878967;29;20178;-86
2023/07/08 10:21:45;;;;;;;9.20;7.18;;;31.30;1.00;;;;;;4878174;29;20190;-84
2023/07/08 10:24:27;;;;;;;8.90;7.32;;;31.10;1.00;;;;;;4879985;29;20179;-88
2023/07/08 10:27:21;;;;;;;9.70;7.60;;;31.00;1.00;;;;;;4880562;29;20211;-87
2023/07/08 10:29:54;;;;;;;10.15;7.07;;;31.10;1.00;;;;;;4894130;29;20199;-85
2023/07/08 10:32:57;;;;;;;8.82;7.15;;;31.10;5.70;;;;;;4883618;29;20183;-86
2023/07/08 10:35:33;;;;;;;9.25;6.72;;;31.10;1.00;;;;;;4885000;29;20198;-86
2023/07/08 10:38:36;;;;;;;9.68;7.25;;;31.30;1.00;;;;;;4892924;29;20186;-83
2023/07/08 10:41:39;;;;;;;10.52;7.25;;;31.40;13.30;;;;;;4877818;29;20562;-85
2023/07/08 10:44:19;;;;;;;11.98;7.47;;;31.40;29.00;;;;;;4873671;29;20293;-87
2023/07/08 10:47:13;;;;;;;10.98;7.38;;;31.50;41.30;;;;;;4880209;29;20207;-86
2023/07/08 10:49:53;;;;;;;9.20;6.47;;;31.90;32.70;;;;;;4864437;29;20179;-88
2023/07/08 10:52:46;;;;;;;9.00;6.78;;;32.20;1.00;;;;;;4875183;29;20175;-83
2023/07/08 10:55:30;;;;;;;10.68;7.30;;;32.50;1.00;;;;;;4883039;29;20647;-88
2023/07/08 10:58:34;;;;;;;9.23;7.15;;;32.60;1.00;;;;;;4882282;29;20167;-89
2023/07/08 11:01:31;;;;;;;9.82;7.10;;;32.80;1.00;;;;;;4891827;29;20196;-85
2023/07/08 11:03:57;;;;;;;14.00;7.43;;;33.00;1.00;;;;;;4893274;29;20388;-86
2023/07/08 11:06:34;;;;;;;9.23;6.97;;;33.00;1.00;;;;;;4900492;29;20214;-84
2023/07/08 11:09:04;;;;;;;10.02;6.72;;;32.80;1.00;;;;;;4885319;29;20257;-85
2023/07/08 11:11:29;;;;;;;9.18;7.10;;;32.90;1.00;;;;;;4880973;29;20234;-86
2023/07/08 11:14:06;;;;;;;9.10;7.00;;;32.60;1.00;;;;;;4880721;29;20171;-84
2023/07/08 11:16:45;;;;;;;8.23;6.43;;;32.40;1.00;;;;;;4881045;29;20628;-86
2023/07/08 11:19:19;;;;;;;11.25;6.88;;;32.30;1.00;;;;;;4881538;29;20175;-85
2023/07/08 11:21:48;;;;;;;8.25;6.53;;;32.40;1.00;;;;;;4879545;29;20231;-85
2023/07/08 11:24:59;;;;;;;7.57;5.97;;;32.70;1.00;;;;;;4894266;29;20237;-85
2023/07/08 11:27:45;;;;;;;13.60;6.53;;;33.00;1.00;;;;;;4883640;29;20214;-86
2023/07/08 11:30:10;;;;;;;9.05;6.05;;;33.40;1.00;;;;;;4876614;29;20278;-86
2023/07/08 11:32:38;;;;;;;7.03;5.38;;;33.40;1.00;;;;;;4877420;29;20286;-88
2023/07/08 11:35:07;;;;;;;7.65;5.55;;;33.50;1.00;;;;;;4878905;29;20714;-94
2023/07/08 11:37:34;;;;;;;6.57;5.63;;;33.50;1.00;;;;;;4868140;29;20187;-85
2023/07/08 11:40:17;;;;;;;7.80;5.78;;;33.50;1.00;;;;;;4881178;29;20183;-95
2023/07/08 11:42:48;;;;;;;7.20;5.65;;;33.60;1.00;;;;;;4885142;29;20190;-90
2023/07/08 11:45:37;;;;;;;8.68;5.55;;;33.60;1.00;;;;;;4876398;29;20175;-88
2023/07/08 11:48:13;;;;;;;7.82;5.78;;;33.80;1.00;;;;;;4885122;29;20210;-89
2023/07/08 11:50:46;;;;;;;9.68;6.10;;;33.70;1.00;;;;;;4884602;29;20191;-91
2023/07/08 11:53:30;;;;;;;8.10;5.50;;;33.40;1.00;;;;;;4882689;29;20178;-87
2023/07/08 11:55:57;;;;;;;9.90;5.72;;;33.50;1.00;;;;;;4881999;29;20628;-90
2023/07/08 11:58:30;;;;;;;7.40;5.95;;;33.60;1.00;;;;;;4895126;29;20171;-95
2023/07/08 12:01:19;;;;;;;6.55;5.07;;;33.80;1.00;;;;;;4901141;29;20182;-89
2023/07/08 12:03:58;;;;;;;7.95;5.68;;;34.10;1.00;;;;;;4890072;29;20235;-87
2023/07/08 12:06:27;;;;;;;9.50;5.95;;;34.20;1.00;;;;;;4879975;29;20302;-83
2023/07/08 12:08:58;;;;;;;10.25;5.15;;;33.60;1.00;;;;;;4878389;29;20195;-89
2023/07/08 12:11:30;;;;;;;10.32;9.30;;;33.80;1.00;;;;;;4882913;29;20180;-95
2023/07/08 12:13:59;;;;;;;9.95;7.18;;;34.10;1.00;;;;;;4882715;29;20207;-86
2023/07/08 12:16:31;;;;;;;7.90;5.95;;;34.20;1.00;;;;;;4877898;29;20294;-94
2023/07/08 12:18:59;;;;;;;8.25;7.40;;;34.30;3.00;;;;;;4902291;29;20228;-91
2023/07/08 12:21:27;;;;;;;8.73;5.97;;;34.40;1.00;;;;;;4883001;29;20164;-88
2023/07/08 12:23:54;;;;;;;7.57;4.78;;;34.30;1.00;;;;;;4898889;29;20191;-84
2023/07/08 12:26:22;;;;;;;8.80;5.95;;;34.30;17.70;;;;;;4883972;29;20194;-92
2023/07/08 12:28:49;;;;;;;9.25;5.65;;;34.30;20.90;;;;;;4884476;29;20191;-93
2023/07/08 12:31:16;;;;;;;6.90;5.53;;;34.50;12.10;;;;;;4884027;29;20194;-96
2023/07/08 12:33:43;;;;;;;8.70;5.45;;;34.70;1.00;;;;;;4881827;29;20199;-94
2023/07/08 12:36:13;;;;;;;9.60;6.25;;;34.80;1.00;;;;;;4882966;29;20204;-95
2023/07/08 12:38:46;;;;;;;8.02;6.07;;;34.40;4.10;;;;;;4883602;29;20175;-94
2023/07/08 12:41:20;;;;;;;9.90;6.75;;;34.50;17.20;;;;;;4883601;29;20186;-95
2023/07/08 12:43:47;;;;;;;11.90;6.45;;;34.50;29.20;;;;;;4884397;29;20171;-94
2023/07/08 12:46:15;;;;;;;9.23;6.38;;;34.40;34.20;;;;;;4885420;29;20174;-94
2023/07/08 12:48:42;;;;;;;11.10;6.25;;;34.50;49.30;;;;;;4885635;29;20205;-94
2023/07/08 12:51:14;;;;;;;11.85;5.88;;;34.70;73.60;;;;;;4890782;29;20265;-88
2023/07/08 12:53:41;;;;;;;9.57;5.93;;;34.80;89.30;;;;;;4887230;29;20229;-92
2023/07/08 12:56:07;;;;;;;24.83;7.40;;;34.70;95.10;;;;;;4886343;29;20218;-93
2023/07/08 12:58:41;;;;;;;10.27;6.00;;;34.20;99.90;;;;;;4887593;29;20179;-93
2023/07/08 13:01:12;;;;;;;17.17;6.35;;;33.30;99.90;;;;;;4888482;29;20555;-94
2023/07/08 13:03:44;;;;;;;9.43;5.63;;;32.70;1.00;;;;;;4885177;29;20210;-90